Time;durP1;ratioP1;P1;durP2;ratioP2;P2;SDS_P1;SDS_P2;PMS_P1;PMS_P2;Temp;Humidity;BMP_temperature;BMP_pressure;BME280_temperature;BME280_humidity;BME280_pressure;Samples;Min_cycle;Max_cycle;Signal;HPM_P1;HPM_P2
2023/10/31 00:01:08;;;;;;;4.85;4.45;;;;;;;;;;5054997;28;20455;-89
2023/10/31 00:03:34;;;;;;;5.33;4.90;;;;;;;;;;5055545;28;20178;-87
2023/10/31 00:06:00;;;;;;;6.28;5.78;;;;;;;;;;5054798;28;20475;-87
2023/10/31 00:08:26;;;;;;;6.00;5.50;;;;;;;;;;5038063;28;20242;-86
2023/10/31 00:10:52;;;;;;;7.70;6.27;;;;;;;;;;5054754;28;20412;-88
2023/10/31 00:13:18;;;;;;;6.15;5.53;;;;;;;;;;5039165;28;20425;-85
2023/10/31 00:15:44;;;;;;;5.30;4.50;;;;;;;;;;5036274;28;20185;-85
2023/10/31 00:18:10;;;;;;;4.43;3.50;;;;;;;;;;5055474;28;20501;-90
2023/10/31 00:20:36;;;;;;;4.70;4.40;;;;;;;;;;5040094;28;20756;-91
2023/10/31 00:23:02;;;;;;;3.80;3.50;;;;;;;;;;5034546;28;20285;-88
2023/10/31 00:25:28;;;;;;;3.90;3.50;;;;;;;;;;5034065;28;20831;-88
2023/10/31 00:27:54;;;;;;;3.72;3.15;;;;;;;;;;5034586;28;20417;-89
2023/10/31 00:30:21;;;;;;;3.00;2.80;;;;;;;;;;5034063;28;20622;-89
2023/10/31 00:32:47;;;;;;;3.40;3.10;;;;;;;;;;5034219;28;20866;-87
2023/10/31 00:35:13;;;;;;;5.50;3.50;;;;;;;;;;5017493;28;20193;-88
2023/10/31 00:37:39;;;;;;;3.85;3.45;;;;;;;;;;5034261;28;20500;-88
2023/10/31 00:40:06;;;;;;;3.60;3.30;;;;;;;;;;5034003;28;20197;-87
2023/10/31 00:42:32;;;;;;;6.95;3.42;;;;;;;;;;5034974;28;20198;-88
2023/10/31 00:44:59;;;;;;;6.20;3.50;;;;;;;;;;5033904;28;20549;-88
2023/10/31 00:47:25;;;;;;;4.80;3.03;;;;;;;;;;5034695;28;20401;-87
2023/10/31 00:49:53;;;;;;;4.17;3.53;;;;;;;;;;5035383;28;20182;-89
2023/10/31 00:52:18;;;;;;;2.70;2.50;;;;;;;;;;5035165;28;20403;-87
2023/10/31 00:54:44;;;;;;;5.53;2.87;;;;;;;;;;5035125;28;20174;-87
2023/10/31 00:57:10;;;;;;;5.85;2.22;;;;;;;;;;5033309;28;20428;-86
2023/10/31 00:59:37;;;;;;;5.20;3.30;;;;;;;;;;5036727;28;20193;-87
2023/10/31 01:02:03;;;;;;;2.70;2.38;;;;;;;;;;5053422;28;20458;-87
2023/10/31 01:04:29;;;;;;;3.15;2.55;;;;;;;;;;5052888;28;20185;-87
2023/10/31 01:06:55;;;;;;;5.87;3.27;;;;;;;;;;5054655;28;20221;-87
2023/10/31 01:09:22;;;;;;;4.07;2.75;;;;;;;;;;5054067;28;20474;-87
2023/10/31 01:11:48;;;;;;;4.00;3.00;;;;;;;;;;5036936;28;20181;-86
2023/10/31 01:14:14;;;;;;;5.43;2.50;;;;;;;;;;5041570;28;20217;-87
2023/10/31 01:16:43;;;;;;;4.38;2.22;;;;;;;;;;5034107;28;20454;-87
2023/10/31 01:19:09;;;;;;;3.13;2.30;;;;;;;;;;5034319;28;20185;-87
2023/10/31 01:21:35;;;;;;;4.07;2.42;;;;;;;;;;5045794;28;20625;-87
2023/10/31 01:24:01;;;;;;;3.77;2.30;;;;;;;;;;5054425;28;20177;-87
2023/10/31 01:26:27;;;;;;;2.90;2.00;;;;;;;;;;5053513;28;20869;-88
2023/10/31 01:28:53;;;;;;;3.73;1.87;;;;;;;;;;5053913;28;20515;-87
2023/10/31 01:31:19;;;;;;;2.20;1.77;;;;;;;;;;5038516;28;20405;-88
2023/10/31 01:33:45;;;;;;;3.40;1.87;;;;;;;;;;5032842;28;20461;-88
2023/10/31 01:36:12;;;;;;;5.78;1.70;;;;;;;;;;5032759;28;20517;-88
2023/10/31 01:38:38;;;;;;;1.90;1.70;;;;;;;;;;5032814;28;20261;-88
2023/10/31 01:41:05;;;;;;;4.15;1.60;;;;;;;;;;5016518;28;20178;-88
2023/10/31 01:43:32;;;;;;;5.25;1.75;;;;;;;;;;5032722;28;20196;-88
2023/10/31 01:45:58;;;;;;;3.10;1.40;;;;;;;;;;5033893;28;20360;-88
2023/10/31 01:48:25;;;;;;;2.03;1.65;;;;;;;;;;5032524;28;20178;-88
2023/10/31 01:50:51;;;;;;;2.72;1.45;;;;;;;;;;5034117;28;20174;-88
2023/10/31 01:53:17;;;;;;;2.40;1.83;;;;;;;;;;5032729;28;20187;-87
2023/10/31 01:55:45;;;;;;;1.70;1.50;;;;;;;;;;5033663;28;20596;-88
2023/10/31 01:58:11;;;;;;;13.32;1.95;;;;;;;;;;5032901;28;20205;-87
2023/10/31 02:00:38;;;;;;;3.53;1.60;;;;;;;;;;5033918;28;20309;-88
2023/10/31 02:03:04;;;;;;;6.40;1.77;;;;;;;;;;5033878;28;20236;-87
2023/10/31 02:05:32;;;;;;;3.22;1.90;;;;;;;;;;5032611;28;20210;-88
2023/10/31 02:07:58;;;;;;;2.45;1.92;;;;;;;;;;5032494;28;20177;-88
2023/10/31 02:10:24;;;;;;;2.13;1.92;;;;;;;;;;5032278;28;20186;-88
2023/10/31 02:12:50;;;;;;;2.77;1.80;;;;;;;;;;5032689;28;20182;-88
2023/10/31 02:15:16;;;;;;;5.03;1.85;;;;;;;;;;5032596;28;20496;-88
2023/10/31 02:17:42;;;;;;;2.43;1.60;;;;;;;;;;5015974;28;20285;-88
2023/10/31 02:20:08;;;;;;;2.87;1.90;;;;;;;;;;5032149;28;20412;-88
2023/10/31 02:22:34;;;;;;;5.60;2.45;;;;;;;;;;5053448;28;20407;-88
2023/10/31 02:25:00;;;;;;;3.00;2.10;;;;;;;;;;5052360;28;20186;-88
2023/10/31 02:27:26;;;;;;;9.70;2.00;;;;;;;;;;5052280;28;20400;-89
2023/10/31 02:29:52;;;;;;;4.97;2.00;;;;;;;;;;5052651;28;20174;-88
2023/10/31 02:32:18;;;;;;;6.90;2.17;;;;;;;;;;5052278;28;20819;-88
2023/10/31 02:34:45;;;;;;;6.77;2.40;;;;;;;;;;5054064;28;20412;-89
2023/10/31 02:37:11;;;;;;;10.82;3.15;;;;;;;;;;5056404;28;20855;-89
2023/10/31 02:39:38;;;;;;;5.15;2.15;;;;;;;;;;5057278;28;20169;-89
2023/10/31 02:42:04;;;;;;;6.90;2.97;;;;;;;;;;5053612;28;20218;-89
2023/10/31 02:44:30;;;;;;;3.05;1.90;;;;;;;;;;5037195;28;20210;-89
2023/10/31 02:46:56;;;;;;;3.90;2.60;;;;;;;;;;5036433;28;20232;-89
2023/10/31 02:49:22;;;;;;;5.70;3.53;;;;;;;;;;5037221;28;20426;-90
2023/10/31 02:51:48;;;;;;;3.03;2.65;;;;;;;;;;5037178;28;20877;-89
2023/10/31 02:54:14;;;;;;;6.33;2.47;;;;;;;;;;5036403;28;20197;-88
2023/10/31 02:56:40;;;;;;;3.47;2.40;;;;;;;;;;5036092;28;20562;-89
2023/10/31 02:59:06;;;;;;;2.60;1.83;;;;;;;;;;5019777;28;20281;-88
2023/10/31 03:01:32;;;;;;;4.90;1.83;;;;;;;;;;5037868;28;21043;-88
2023/10/31 03:03:58;;;;;;;4.18;2.35;;;;;;;;;;5057063;28;20182;-88
2023/10/31 03:06:24;;;;;;;2.13;1.70;;;;;;;;;;5055583;28;20564;-89
2023/10/31 03:08:50;;;;;;;4.32;1.92;;;;;;;;;;5056921;28;20408;-88
2023/10/31 03:11:23;;;;;;;2.53;1.47;;;;;;;;;;5039061;28;20181;-88
2023/10/31 03:13:50;;;;;;;2.88;2.05;;;;;;;;;;5056919;28;20408;-88
2023/10/31 03:16:16;;;;;;;4.85;1.45;;;;;;;;;;5056803;28;20189;-88
2023/10/31 03:18:42;;;;;;;2.40;1.55;;;;;;;;;;5040916;28;20182;-89
2023/10/31 03:21:08;;;;;;;7.05;1.88;;;;;;;;;;5035227;28;20178;-88
2023/10/31 03:23:34;;;;;;;2.23;1.33;;;;;;;;;;5035672;28;20615;-89
2023/10/31 03:26:00;;;;;;;2.03;1.67;;;;;;;;;;5035426;28;20482;-89
2023/10/31 03:28:27;;;;;;;4.82;1.80;;;;;;;;;;5035244;28;20980;-89
2023/10/31 03:30:53;;;;;;;3.63;1.65;;;;;;;;;;5036785;28;20653;-88
2023/10/31 03:33:19;;;;;;;3.83;1.67;;;;;;;;;;5016266;28;20202;-88
2023/10/31 03:35:45;;;;;;;4.72;2.00;;;;;;;;;;5015040;28;20421;-89
2023/10/31 03:38:11;;;;;;;2.95;1.60;;;;;;;;;;5016157;28;20178;-88
2023/10/31 03:40:37;;;;;;;5.32;1.60;;;;;;;;;;5016556;28;20689;-89
2023/10/31 03:43:03;;;;;;;3.00;1.90;;;;;;;;;;5015445;28;20183;-89
2023/10/31 03:45:29;;;;;;;2.70;1.80;;;;;;;;;;5015058;28;20569;-89
2023/10/31 03:47:55;;;;;;;1.83;1.33;;;;;;;;;;5015342;28;20504;-88
2023/10/31 03:50:21;;;;;;;3.22;1.30;;;;;;;;;;5016520;28;20170;-88
2023/10/31 03:52:47;;;;;;;3.85;1.40;;;;;;;;;;5015375;28;20233;-88
2023/10/31 03:55:13;;;;;;;1.90;1.23;;;;;;;;;;5015315;28;20585;-89
2023/10/31 03:57:39;;;;;;;1.95;1.55;;;;;;;;;;5028945;28;20424;-89
2023/10/31 04:00:07;;;;;;;2.90;2.50;;;;;;;;;;5039011;28;20337;-89
2023/10/31 04:02:33;;;;;;;1.95;1.27;;;;;;;;;;5034273;28;20980;-89
2023/10/31 04:04:59;;;;;;;1.58;1.48;;;;;;;;;;5034812;28;20186;-89
2023/10/31 04:07:25;;;;;;;2.22;1.42;;;;;;;;;;5034846;28;20210;-89
2023/10/31 04:09:51;;;;;;;4.10;1.33;;;;;;;;;;5034786;28;20192;-89
2023/10/31 04:12:17;;;;;;;2.67;1.20;;;;;;;;;;5035000;28;20401;-89
2023/10/31 04:14:43;;;;;;;1.80;1.50;;;;;;;;;;5034628;28;20420;-89
2023/10/31 04:17:09;;;;;;;1.93;1.20;;;;;;;;;;5036037;28;20901;-88
2023/10/31 04:19:37;;;;;;;2.85;1.15;;;;;;;;;;5035831;28;20405;-89
2023/10/31 04:22:03;;;;;;;6.20;1.40;;;;;;;;;;5036294;28;20523;-88
2023/10/31 04:24:29;;;;;;;2.25;1.30;;;;;;;;;;5035682;28;20174;-89
2023/10/31 04:26:55;;;;;;;1.33;1.17;;;;;;;;;;5033828;28;20220;-89
2023/10/31 04:29:20;;;;;;;1.87;1.00;;;;;;;;;;5020623;28;20786;-88
2023/10/31 04:31:46;;;;;;;1.53;1.37;;;;;;;;;;5035324;28;20421;-88
2023/10/31 04:34:13;;;;;;;3.85;1.65;;;;;;;;;;5034538;28;20528;-88
2023/10/31 04:36:39;;;;;;;1.92;1.40;;;;;;;;;;5034278;28;20194;-88
2023/10/31 04:39:05;;;;;;;1.65;1.23;;;;;;;;;;5017846;28;20304;-87
2023/10/31 04:41:31;;;;;;;3.45;1.65;;;;;;;;;;5036063;28;20201;-88
2023/10/31 04:43:57;;;;;;;1.60;1.50;;;;;;;;;;5036507;28;20182;-88
2023/10/31 04:46:27;;;;;;;1.80;1.35;;;;;;;;;;5036409;28;20252;-88
2023/10/31 04:48:53;;;;;;;1.58;1.40;;;;;;;;;;5035086;28;20166;-87
2023/10/31 04:51:19;;;;;;;2.38;1.50;;;;;;;;;;5035040;28;20173;-89
2023/10/31 04:53:45;;;;;;;5.53;1.38;;;;;;;;;;5017609;28;20236;-87
2023/10/31 04:56:15;;;;;;;2.00;1.40;;;;;;;;;;5033133;28;20197;-86
2023/10/31 04:58:44;;;;;;;2.20;1.70;;;;;;;;;;5033493;28;20174;-87
2023/10/31 05:01:11;;;;;;;3.63;1.98;;;;;;;;;;5033525;28;20230;-88
2023/10/31 05:03:37;;;;;;;4.15;1.60;;;;;;;;;;5034765;28;20205;-86
2023/10/31 05:06:04;;;;;;;2.15;1.50;;;;;;;;;;5044462;28;20201;-90
2023/10/31 05:08:30;;;;;;;3.33;1.50;;;;;;;;;;5038251;28;20550;-89
2023/10/31 05:10:56;;;;;;;2.33;1.65;;;;;;;;;;5055151;28;20201;-87
2023/10/31 05:13:22;;;;;;;2.45;1.90;;;;;;;;;;5035575;28;20182;-88
2023/10/31 05:15:48;;;;;;;1.80;1.70;;;;;;;;;;5018370;28;20182;-88
2023/10/31 05:18:15;;;;;;;1.55;1.42;;;;;;;;;;5034654;28;20409;-88
2023/10/31 05:20:41;;;;;;;2.25;1.42;;;;;;;;;;5040807;28;20188;-88
2023/10/31 05:23:07;;;;;;;4.30;1.70;;;;;;;;;;5054074;28;20269;-88
2023/10/31 05:25:33;;;;;;;1.90;1.75;;;;;;;;;;5050653;28;20469;-89
2023/10/31 05:27:59;;;;;;;1.73;1.60;;;;;;;;;;5017492;28;20292;-88
2023/10/31 05:30:25;;;;;;;1.95;1.65;;;;;;;;;;5035842;28;20762;-88
2023/10/31 05:32:51;;;;;;;2.42;2.00;;;;;;;;;;5034024;28;20634;-89
2023/10/31 05:35:17;;;;;;;10.15;1.95;;;;;;;;;;5034196;28;20182;-88
2023/10/31 05:37:43;;;;;;;2.85;2.30;;;;;;;;;;5033450;28;20182;-88
2023/10/31 05:40:10;;;;;;;2.08;1.88;;;;;;;;;;5035086;28;20181;-88
2023/10/31 05:42:36;;;;;;;3.45;1.85;;;;;;;;;;5034773;28;20556;-88
2023/10/31 05:45:02;;;;;;;2.58;1.85;;;;;;;;;;5034797;28;20185;-88
2023/10/31 05:47:28;;;;;;;2.07;1.77;;;;;;;;;;5034262;28;20214;-89
2023/10/31 05:49:54;;;;;;;2.80;2.00;;;;;;;;;;5034802;28;20499;-88
2023/10/31 05:52:20;;;;;;;1.75;1.35;;;;;;;;;;5034737;28;20413;-88
2023/10/31 05:54:46;;;;;;;2.87;1.90;;;;;;;;;;5019784;28;20646;-88
2023/10/31 05:57:12;;;;;;;2.17;1.90;;;;;;;;;;5034065;28;20421;-87
2023/10/31 05:59:37;;;;;;;3.60;1.60;;;;;;;;;;5035432;28;20397;-88
2023/10/31 06:02:04;;;;;;;3.03;2.43;;;;;;;;;;5033354;28;20883;-89
2023/10/31 06:04:30;;;;;;;2.05;1.90;;;;;;;;;;5033662;28;20464;-88
2023/10/31 06:06:56;;;;;;;2.00;1.90;;;;;;;;;;5016773;28;20213;-89
2023/10/31 06:09:22;;;;;;;2.60;2.33;;;;;;;;;;5039121;28;20182;-89
2023/10/31 06:11:48;;;;;;;2.60;2.40;;;;;;;;;;5040340;28;20403;-89
2023/10/31 06:14:14;;;;;;;4.87;3.27;;;;;;;;;;5040538;28;20397;-88
2023/10/31 06:16:43;;;;;;;3.00;2.33;;;;;;;;;;5039035;28;20482;-88
2023/10/31 06:19:10;;;;;;;3.88;2.40;;;;;;;;;;5039347;28;20463;-88
2023/10/31 06:21:36;;;;;;;2.55;2.35;;;;;;;;;;5040647;28;20185;-88
2023/10/31 06:24:05;;;;;;;2.60;2.40;;;;;;;;;;5042870;28;20178;-87
2023/10/31 06:26:31;;;;;;;4.78;2.65;;;;;;;;;;5022237;28;20209;-87
2023/10/31 06:28:57;;;;;;;2.50;2.30;;;;;;;;;;5023797;28;20201;-88
2023/10/31 06:31:23;;;;;;;2.40;2.27;;;;;;;;;;5022718;28;20567;-87
2023/10/31 06:33:49;;;;;;;2.90;2.60;;;;;;;;;;5038809;28;20423;-88
2023/10/31 06:36:15;;;;;;;8.30;2.90;;;;;;;;;;5040169;28;20944;-87
2023/10/31 06:38:41;;;;;;;2.40;2.20;;;;;;;;;;5040378;28;20763;-88
2023/10/31 06:41:07;;;;;;;4.30;3.20;;;;;;;;;;5038895;28;20424;-88
2023/10/31 06:43:33;;;;;;;4.22;2.80;;;;;;;;;;5040449;28;20409;-91
2023/10/31 06:46:02;;;;;;;3.30;3.08;;;;;;;;;;5023944;28;20699;-90
2023/10/31 06:48:28;;;;;;;3.00;2.65;;;;;;;;;;5040627;28;20272;-89
2023/10/31 06:50:54;;;;;;;2.53;2.33;;;;;;;;;;5041484;28;20655;-90
2023/10/31 06:53:20;;;;;;;2.70;2.50;;;;;;;;;;5024028;28;20446;-89
2023/10/31 06:55:46;;;;;;;3.90;3.00;;;;;;;;;;5024103;28;20428;-89
2023/10/31 06:58:12;;;;;;;2.50;2.25;;;;;;;;;;5040313;28;20413;-92
2023/10/31 07:00:38;;;;;;;3.63;2.97;;;;;;;;;;5041419;28;20255;-90
2023/10/31 07:03:09;;;;;;;6.10;3.37;;;;;;;;;;5023043;28;20424;-89
2023/10/31 07:05:37;;;;;;;4.05;2.90;;;;;;;;;;5041328;28;20791;-91
2023/10/31 07:08:04;;;;;;;2.85;2.65;;;;;;;;;;5041270;28;20216;-91
2023/10/31 07:10:30;;;;;;;3.00;2.70;;;;;;;;;;5023736;28;20217;-91
2023/10/31 07:12:58;;;;;;;3.05;2.85;;;;;;;;;;5040473;28;20178;-91
2023/10/31 07:15:24;;;;;;;4.18;2.95;;;;;;;;;;5041479;28;20680;-91
2023/10/31 07:17:50;;;;;;;6.20;2.77;;;;;;;;;;5023722;28;20178;-91
2023/10/31 07:20:16;;;;;;;3.50;3.20;;;;;;;;;;5037506;28;20456;-90
2023/10/31 07:22:42;;;;;;;2.92;2.72;;;;;;;;;;5038234;28;20409;-89
2023/10/31 07:25:09;;;;;;;5.80;2.78;;;;;;;;;;5054978;28;20193;-91
2023/10/31 07:27:35;;;;;;;2.45;2.25;;;;;;;;;;5047891;28;20264;-90
2023/10/31 07:30:01;;;;;;;4.37;3.20;;;;;;;;;;5036240;28;20605;-90
2023/10/31 07:32:27;;;;;;;2.80;2.15;;;;;;;;;;5036534;28;20749;-90
2023/10/31 07:34:53;;;;;;;3.20;2.65;;;;;;;;;;5036041;28;20182;-90
2023/10/31 07:37:19;;;;;;;3.38;2.78;;;;;;;;;;5037258;28;20186;-89
2023/10/31 07:39:45;;;;;;;4.75;3.20;;;;;;;;;;5036037;28;20190;-91
2023/10/31 07:42:11;;;;;;;5.53;2.60;;;;;;;;;;5021455;28;20178;-90
2023/10/31 07:44:37;;;;;;;4.50;2.93;;;;;;;;;;5057448;28;20753;-89
2023/10/31 07:47:03;;;;;;;4.03;2.80;;;;;;;;;;5037748;28;20556;-90
2023/10/31 07:49:29;;;;;;;3.35;2.72;;;;;;;;;;5035754;28;20425;-90
2023/10/31 07:51:55;;;;;;;2.73;2.53;;;;;;;;;;5036668;28;20201;-87
2023/10/31 07:54:21;;;;;;;2.30;2.07;;;;;;;;;;5018907;28;20487;-89
2023/10/31 07:56:47;;;;;;;3.55;2.00;;;;;;;;;;5036314;28;20413;-88
2023/10/31 07:59:13;;;;;;;7.88;2.78;;;;;;;;;;5036937;28;20232;-90
2023/10/31 08:01:39;;;;;;;2.87;2.67;;;;;;;;;;5037082;28;20238;-88
2023/10/31 08:04:05;;;;;;;3.30;2.70;;;;;;;;;;5035162;28;20512;-89
2023/10/31 08:06:31;;;;;;;5.18;3.05;;;;;;;;;;5041926;28;20617;-90
2023/10/31 08:08:57;;;;;;;3.27;2.87;;;;;;;;;;5054722;28;20213;-87
2023/10/31 08:11:23;;;;;;;3.00;2.70;;;;;;;;;;5054857;28;20745;-87
2023/10/31 08:13:49;;;;;;;5.83;3.17;;;;;;;;;;5054464;28;20562;-86
2023/10/31 08:16:19;;;;;;;3.50;3.07;;;;;;;;;;5054690;28;20404;-87
2023/10/31 08:18:45;;;;;;;6.00;2.95;;;;;;;;;;5054003;28;20416;-86
2023/10/31 08:21:12;;;;;;;3.45;2.67;;;;;;;;;;5054982;28;20225;-85
2023/10/31 08:23:38;;;;;;;7.35;3.05;;;;;;;;;;5055149;28;20228;-81
2023/10/31 08:26:04;;;;;;;5.57;2.80;;;;;;;;;;5054795;28;20201;-83
2023/10/31 08:28:30;;;;;;;4.97;2.75;;;;;;;;;;5038644;28;20247;-87
2023/10/31 08:30:56;;;;;;;2.65;2.40;;;;;;;;;;5055311;28;20166;-84
2023/10/31 08:33:22;;;;;;;5.20;3.42;;;;;;;;;;5055510;28;20243;-83
2023/10/31 08:35:49;;;;;;;6.90;3.43;;;;;;;;;;5054611;28;20193;-86
2023/10/31 08:38:14;;;;;;;2.80;2.60;;;;;;;;;;5054666;28;20422;-86
2023/10/31 08:40:41;;;;;;;4.40;2.90;;;;;;;;;;5055969;28;20169;-86
2023/10/31 08:43:07;;;;;;;3.28;3.00;;;;;;;;;;5055302;28;20397;-88
2023/10/31 08:45:33;;;;;;;7.15;3.17;;;;;;;;;;5055346;28;20209;-85
2023/10/31 08:48:00;;;;;;;3.03;2.70;;;;;;;;;;5054207;28;20193;-86
2023/10/31 08:50:26;;;;;;;2.90;2.50;;;;;;;;;;5050605;28;20185;-86
2023/10/31 08:52:52;;;;;;;2.92;2.20;;;;;;;;;;5035279;28;20178;-86
2023/10/31 08:55:18;;;;;;;2.50;2.30;;;;;;;;;;5032052;28;20182;-88
2023/10/31 08:57:44;;;;;;;4.07;2.72;;;;;;;;;;5036498;28;20178;-87
2023/10/31 09:00:10;;;;;;;6.50;2.90;;;;;;;;;;5017421;28;20269;-86
2023/10/31 09:02:36;;;;;;;2.53;2.33;;;;;;;;;;5033911;28;20488;-86
2023/10/31 09:05:02;;;;;;;4.10;2.90;;;;;;;;;;5034017;28;20213;-89
2023/10/31 09:07:28;;;;;;;2.93;2.60;;;;;;;;;;5036249;28;20550;-87
2023/10/31 09:09:54;;;;;;;5.50;2.80;;;;;;;;;;5032705;28;20425;-87
2023/10/31 09:12:20;;;;;;;4.32;2.53;;;;;;;;;;5034017;28;20895;-88
2023/10/31 09:14:46;;;;;;;5.27;2.13;;;;;;;;;;5035122;28;20264;-86
2023/10/31 09:17:12;;;;;;;9.13;3.15;;;;;;;;;;5033680;28;20421;-87
2023/10/31 09:19:38;;;;;;;2.22;2.03;;;;;;;;;;5033226;28;20192;-88
2023/10/31 09:22:04;;;;;;;4.73;2.20;;;;;;;;;;5033131;28;20174;-88
2023/10/31 09:24:30;;;;;;;4.23;2.27;;;;;;;;;;5036184;28;20402;-88
2023/10/31 09:26:56;;;;;;;2.80;1.50;;;;;;;;;;5033061;28;20471;-89
2023/10/31 09:29:22;;;;;;;3.63;1.73;;;;;;;;;;5051424;28;20412;-88
2023/10/31 09:31:48;;;;;;;2.83;2.03;;;;;;;;;;5052954;28;20995;-85
2023/10/31 09:34:14;;;;;;;2.10;1.47;;;;;;;;;;5053224;28;20991;-86
2023/10/31 09:36:40;;;;;;;2.23;1.27;;;;;;;;;;5037011;28;20502;-86
2023/10/31 09:39:06;;;;;;;2.13;1.40;;;;;;;;;;5052946;28;20459;-86
2023/10/31 09:41:32;;;;;;;2.80;1.80;;;;;;;;;;5052829;28;20837;-88
2023/10/31 09:43:59;;;;;;;2.87;1.33;;;;;;;;;;5052448;28;20833;-86
2023/10/31 09:46:25;;;;;;;1.37;1.20;;;;;;;;;;5054073;28;20463;-86
2023/10/31 09:48:51;;;;;;;1.63;1.00;;;;;;;;;;5053141;28;20531;-86
2023/10/31 09:51:18;;;;;;;1.80;1.13;;;;;;;;;;5054607;28;20408;-87
2023/10/31 09:53:45;;;;;;;3.20;1.60;;;;;;;;;;5054298;28;20399;-87
2023/10/31 09:56:11;;;;;;;2.13;1.20;;;;;;;;;;5054174;28;20880;-88
2023/10/31 09:58:39;;;;;;;1.67;1.23;;;;;;;;;;5035813;28;20416;-88
2023/10/31 10:01:05;;;;;;;1.10;1.00;;;;;;;;;;5032767;28;20500;-87
2023/10/31 10:03:31;;;;;;;5.27;1.37;;;;;;;;;;5033080;28;20474;-87
2023/10/31 10:05:58;;;;;;;2.30;1.23;;;;;;;;;;5032418;28;20525;-87
2023/10/31 10:08:24;;;;;;;2.40;2.13;;;;;;;;;;5034245;28;20796;-87
2023/10/31 10:10:51;;;;;;;1.70;1.30;;;;;;;;;;5034137;28;20428;-83
2023/10/31 10:13:24;;;;;;;2.57;1.20;;;;;;;;;;5033902;28;20760;-88
2023/10/31 10:15:54;;;;;;;2.07;1.23;;;;;;;;;;5033974;28;20503;-88
2023/10/31 10:18:31;;;;;;;1.70;1.10;;;;;;;;;;5034067;28;20396;-87
2023/10/31 10:21:01;;;;;;;1.33;0.90;;;;;;;;;;5033857;28;20433;-87
2023/10/31 10:23:27;;;;;;;2.90;1.37;;;;;;;;;;5032853;28;20420;-86
2023/10/31 10:25:54;;;;;;;1.60;0.80;;;;;;;;;;5034594;28;20461;-87
2023/10/31 10:28:20;;;;;;;1.63;1.23;;;;;;;;;;5039578;28;20511;-88
2023/10/31 10:30:47;;;;;;;1.10;0.80;;;;;;;;;;5053222;28;20847;-89
2023/10/31 10:33:13;;;;;;;5.23;1.10;;;;;;;;;;5036751;28;20428;-89
2023/10/31 10:35:39;;;;;;;3.37;1.00;;;;;;;;;;5032961;28;20413;-87
2023/10/31 10:38:09;;;;;;;1.90;1.03;;;;;;;;;;5015890;28;20432;-86
2023/10/31 10:40:35;;;;;;;2.70;0.80;;;;;;;;;;5033638;28;20480;-87
2023/10/31 10:43:02;;;;;;;3.90;1.10;;;;;;;;;;5043210;28;20412;-86
2023/10/31 10:45:28;;;;;;;6.50;1.40;;;;;;;;;;5052306;28;20428;-87
2023/10/31 10:47:56;;;;;;;2.70;1.40;;;;;;;;;;5035123;28;20436;-86
2023/10/31 10:50:28;;;;;;;2.10;0.90;;;;;;;;;;5034137;28;20440;-86
2023/10/31 10:52:59;;;;;;;1.63;1.13;;;;;;;;;;5032113;28;20508;-89
2023/10/31 10:55:26;;;;;;;1.00;0.90;;;;;;;;;;5035011;28;20408;-88
2023/10/31 10:57:52;;;;;;;1.40;0.90;;;;;;;;;;5035728;28;20511;-88
2023/10/31 11:00:24;;;;;;;2.77;0.70;;;;;;;;;;5037128;28;20907;-88
2023/10/31 11:02:52;;;;;;;2.87;1.00;;;;;;;;;;5037032;28;20420;-88
2023/10/31 11:05:21;;;;;;;2.80;1.00;;;;;;;;;;5037260;28;20515;-87
2023/10/31 11:07:48;;;;;;;2.80;1.03;;;;;;;;;;5037195;28;20437;-89
2023/10/31 11:10:14;;;;;;;1.80;1.07;;;;;;;;;;5036639;28;20741;-88
2023/10/31 11:12:41;;;;;;;1.63;1.00;;;;;;;;;;5035958;28;20444;-89
2023/10/31 11:15:07;;;;;;;4.43;1.20;;;;;;;;;;5035434;28;20420;-88
2023/10/31 11:17:52;;;;;;;2.97;1.20;;;;;;;;;;5035766;28;20529;-88
2023/10/31 11:20:19;;;;;;;3.73;1.20;;;;;;;;;;5036818;28;20393;-88
2023/10/31 11:22:48;;;;;;;5.87;1.20;;;;;;;;;;5035640;28;21034;-88
2023/10/31 11:25:16;;;;;;;2.23;1.00;;;;;;;;;;5036203;28;20413;-87
2023/10/31 11:27:42;;;;;;;2.50;0.80;;;;;;;;;;5057094;28;20423;-86
2023/10/31 11:30:28;;;;;;;2.60;1.00;;;;;;;;;;5055680;28;20404;-86
2023/10/31 11:32:55;;;;;;;1.90;0.90;;;;;;;;;;5054930;28;20801;-85
2023/10/31 11:35:24;;;;;;;2.17;0.93;;;;;;;;;;5039359;28;20424;-86
2023/10/31 11:37:50;;;;;;;2.13;1.20;;;;;;;;;;5055444;28;20985;-86
2023/10/31 11:40:21;;;;;;;1.27;0.80;;;;;;;;;;5038523;28;20428;-86
2023/10/31 11:42:50;;;;;;;1.03;0.93;;;;;;;;;;5055471;28;20424;-86
2023/10/31 11:45:44;;;;;;;1.50;1.40;;;;;;;;;;5055140;28;20823;-85
2023/10/31 11:48:10;;;;;;;1.23;0.70;;;;;;;;;;5055269;28;20439;-86
2023/10/31 11:50:36;;;;;;;1.83;1.00;;;;;;;;;;5039031;28;20478;-86
2023/10/31 11:53:07;;;;;;;6.00;1.23;;;;;;;;;;5055416;28;20448;-85
2023/10/31 11:55:51;;;;;;;1.40;1.00;;;;;;;;;;5055386;28;20435;-86
2023/10/31 11:58:22;;;;;;;5.23;1.13;;;;;;;;;;5055080;28;20511;-86
2023/10/31 12:00:52;;;;;;;2.13;0.90;;;;;;;;;;5054873;28;20487;-85
2023/10/31 12:03:18;;;;;;;3.60;1.10;;;;;;;;;;5034955;28;20479;-86
2023/10/31 12:05:52;;;;;;;1.10;0.90;;;;;;;;;;5034884;28;20467;-85
2023/10/31 12:08:25;;;;;;;3.00;1.27;;;;;;;;;;5054766;28;20470;-86
2023/10/31 12:10:51;;;;;;;3.13;1.40;;;;;;;;;;5055077;28;20837;-86
2023/10/31 12:13:17;;;;;;;5.83;0.97;;;;;;;;;;5054847;28;20440;-87
2023/10/31 12:15:53;;;;;;;2.07;1.20;;;;;;;;;;5038179;28;20886;-86
2023/10/31 12:18:19;;;;;;;4.20;1.03;;;;;;;;;;5037920;28;20430;-86
2023/10/31 12:20:51;;;;;;;4.13;1.60;;;;;;;;;;5044937;28;20420;-86
2023/10/31 12:23:20;;;;;;;4.10;1.00;;;;;;;;;;5035828;28;20401;-86
2023/10/31 12:25:49;;;;;;;5.83;1.60;;;;;;;;;;5035956;28;20479;-85
2023/10/31 12:28:19;;;;;;;1.53;0.90;;;;;;;;;;5035016;28;20835;-86
2023/10/31 12:30:49;;;;;;;4.17;1.53;;;;;;;;;;5035900;28;20434;-86
2023/10/31 12:33:15;;;;;;;2.37;1.03;;;;;;;;;;5034654;28;20491;-86
2023/10/31 12:35:42;;;;;;;1.77;1.00;;;;;;;;;;5034683;28;20496;-86
2023/10/31 12:38:10;;;;;;;4.40;1.47;;;;;;;;;;5035595;28;20471;-86
2023/10/31 12:40:37;;;;;;;2.17;1.10;;;;;;;;;;5035753;28;20460;-86
2023/10/31 12:43:03;;;;;;;1.20;1.10;;;;;;;;;;5034647;28;20416;-87
2023/10/31 12:45:29;;;;;;;4.93;0.80;;;;;;;;;;5019472;28;20935;-87
2023/10/31 12:48:05;;;;;;;2.27;1.00;;;;;;;;;;5055803;28;20415;-88
2023/10/31 12:50:32;;;;;;;2.47;1.07;;;;;;;;;;5055361;28;20395;-87
2023/10/31 12:52:59;;;;;;;1.17;0.80;;;;;;;;;;5055101;28;20503;-86
2023/10/31 12:55:26;;;;;;;5.13;1.10;;;;;;;;;;5055557;28;20497;-86
2023/10/31 12:57:53;;;;;;;4.23;1.00;;;;;;;;;;5037727;28;20423;-86
2023/10/31 13:00:24;;;;;;;2.20;1.57;;;;;;;;;;5053484;28;20478;-86
2023/10/31 13:02:50;;;;;;;4.37;1.20;;;;;;;;;;5055684;28;20420;-86
2023/10/31 13:05:16;;;;;;;2.93;1.00;;;;;;;;;;5053985;28;20783;-86
2023/10/31 13:07:52;;;;;;;2.17;1.20;;;;;;;;;;5037640;28;20479;-80
2023/10/31 13:10:19;;;;;;;5.07;1.23;;;;;;;;;;5054939;28;20797;-86
2023/10/31 13:12:48;;;;;;;4.73;1.40;;;;;;;;;;5055271;28;20400;-84
2023/10/31 13:15:14;;;;;;;4.10;1.30;;;;;;;;;;5053994;28;20443;-82
2023/10/31 13:17:44;;;;;;;2.63;1.37;;;;;;;;;;5036839;28;20419;-82
2023/10/31 13:20:10;;;;;;;5.50;1.10;;;;;;;;;;5053915;28;20451;-83
2023/10/31 13:22:37;;;;;;;3.33;1.00;;;;;;;;;;5055548;28;20763;-83
2023/10/31 13:25:04;;;;;;;1.87;1.00;;;;;;;;;;5054843;28;20420;-83
2023/10/31 13:27:41;;;;;;;5.07;1.87;;;;;;;;;;5035024;28;20496;-83
2023/10/31 13:30:08;;;;;;;5.00;1.03;;;;;;;;;;5033474;28;20417;-84
2023/10/31 13:32:35;;;;;;;5.00;1.30;;;;;;;;;;5035045;28;20408;-83
2023/10/31 13:35:01;;;;;;;2.43;1.27;;;;;;;;;;5033578;28;20413;-83
2023/10/31 13:37:27;;;;;;;4.87;1.10;;;;;;;;;;5033572;28;20917;-83
2023/10/31 13:39:53;;;;;;;2.80;1.07;;;;;;;;;;5034387;28;20428;-83
2023/10/31 13:42:19;;;;;;;3.63;1.27;;;;;;;;;;5016858;28;20451;-81
2023/10/31 13:44:45;;;;;;;3.50;1.00;;;;;;;;;;5033844;28;20417;-81
2023/10/31 13:47:11;;;;;;;3.13;1.00;;;;;;;;;;5034064;28;20474;-82
2023/10/31 13:49:37;;;;;;;2.40;1.00;;;;;;;;;;5033043;28;20405;-84
2023/10/31 13:52:05;;;;;;;4.00;1.00;;;;;;;;;;5043474;28;20424;-86
2023/10/31 13:54:31;;;;;;;3.40;1.23;;;;;;;;;;5053151;28;20768;-84
2023/10/31 13:56:58;;;;;;;5.50;1.17;;;;;;;;;;5036513;28;20420;-83
2023/10/31 13:59:24;;;;;;;4.43;1.00;;;;;;;;;;5053697;28;20768;-86
2023/10/31 14:01:50;;;;;;;5.80;1.00;;;;;;;;;;5052095;28;20991;-82
2023/10/31 14:04:16;;;;;;;4.10;1.30;;;;;;;;;;5052976;28;20408;-85
2023/10/31 14:06:43;;;;;;;1.60;0.90;;;;;;;;;;5053410;28;20466;-84
2023/10/31 14:09:09;;;;;;;4.27;1.00;;;;;;;;;;5049851;28;20420;-84
2023/10/31 14:11:36;;;;;;;3.80;0.90;;;;;;;;;;5032650;28;20424;-84
2023/10/31 14:14:13;;;;;;;7.70;1.20;;;;;;;;;;5033043;28;20844;-84
2023/10/31 14:16:44;;;;;;;2.53;1.33;;;;;;;;;;5034500;28;20405;-82
2023/10/31 14:19:10;;;;;;;1.90;1.07;;;;;;;;;;5033696;28;20448;-84
2023/10/31 14:21:36;;;;;;;3.73;1.40;;;;;;;;;;5048778;28;20821;-84
2023/10/31 14:24:03;;;;;;;4.20;1.20;;;;;;;;;;5053540;28;20411;-87
2023/10/31 14:26:29;;;;;;;7.10;1.03;;;;;;;;;;5052878;28;20966;-86
2023/10/31 14:28:56;;;;;;;3.03;1.20;;;;;;;;;;5054010;28;20420;-87
2023/10/31 14:31:22;;;;;;;3.80;1.33;;;;;;;;;;5039628;28;20814;-86
2023/10/31 14:33:48;;;;;;;3.60;1.43;;;;;;;;;;5057000;28;20399;-83
2023/10/31 14:36:14;;;;;;;1.93;0.80;;;;;;;;;;5056122;28;20420;-83
2023/10/31 14:38:40;;;;;;;2.40;1.10;;;;;;;;;;5057634;28;20400;-84
2023/10/31 14:41:07;;;;;;;1.77;1.10;;;;;;;;;;5055930;28;20404;-83